Hlavní strana
METAR-TAF:

METAR-TAF

Letiště :

Simferopol, Rusko

zeměpisná šířka: 45-03-08N, zeměpisná délka: 033-58-31E, výška: 195 m

Aktuální stav počasí

Zpráva byla vytvořena před 21 minutami, v 13:00 UTC
Západojihozápadní vítr 8 kt
Teplota 8°C
Vlhkost vzduchu 66%
Tlak 1023 hPa
Viditelnost 10 km a více
Oblačno až skoro zataženo ve výšce 2500 ft

METAR: URFF 251300Z 24004MPS 9999 BKN025 08/02 Q1023 R19/090095 NOSIG

Čas: 16:21 (13:21 UTC)

Předpověď počasí

Zpráva byla vytvořena před 2 hodinami a 25 minutami, v 10:56 UTC
Předpověď platná od 25 v 12 UTC do 26 v 12 UTC
Západní vítr 6 kt
Viditelnost 10 km a více
Skoro jasno ve výšce 700 ft
Polojasno ve výšce 1600 ft, Cumulonimbus.
Od 25 v 1600 UTC
Jižní vítr 6 kt
Viditelnost: 6000 m
Skoro jasno ve výšce 400 ft
Oblačno až skoro zataženo ve výšce 1600 ft
Polojasno ve výšce 2000 ft, Cumulonimbus.

TAF: URFF 251056Z 2512/2612 26003MPS 9999 FEW007 SCT016CB TX09/2611Z TN02/2603Z FM251600 19003MPS 6000 FEW004 BKN016 SCT020CB

Stav a předpovědi počasí z více než 4 000 letišť (zprávy METAR a TAF).

Červené a žluté tečky na mapě představují dostupné meteorologické stanice.

Když kurzor umístíte na tečku, zobrazí se název stanice.

Pak kliknutím zobrazíte stav a předpověď počasí.

Chcete-li změnit mapu, kliknutím na zelené tlačítko se znaménkem +mapu přiblížíte, kliknutím na zelené tlačítko se znaménkem – mapu oddálíte a kliknutím na zelené šipky přejdete na sousední mapy.


METAR-TAF: